MZT8087 ZBDT-ZHCC
Flight info
| Callsign | MZT8087 |
|---|---|
| Flight time | 1h 10m |
| Altitude | 24600 |
| Route | MUGUT8Z MUGUT B458 IPLEV W45 SQ B208 NOPIN NOP9U |
| Aircraft | B737/M-SDFGHIM1RWXYZ/LB1 |
Departure
| Time | 2026-05-07 12:19 |
|---|---|
| Airport | Datong Yungang International Airport (ZBDT) |
Arrival
| Time | 2026-05-07 13:30 |
|---|---|
| Airport | Zhengzhou Xinzheng International Airport (ZHCC) |
| Time | Latitude | Longitude | Altitude | Speed | Heading |
|---|---|---|---|---|---|
| 2026-05-07 11:28 | 40.05644 | 113.48250 | 3495 ft | 0 kts | 221° |
| 2026-05-07 11:28 | 40.05646 | 113.48252 | 3492 ft | 1 kts | 221° |
| 2026-05-07 11:29 | 40.05659 | 113.48268 | 3492 ft | 3 kts | 230° |
| 2026-05-07 11:29 | 40.05670 | 113.48289 | 3493 ft | 3 kts | 246° |
| 2026-05-07 11:29 | 40.05675 | 113.48313 | 3495 ft | 3 kts | 278° |
| 2026-05-07 11:29 | 40.05670 | 113.48330 | 3493 ft | 1 kts | 311° |
| 2026-05-07 11:38 | 40.05671 | 113.48329 | 3486 ft | 1 kts | 311° |
| 2026-05-07 11:38 | 40.05679 | 113.48320 | 3489 ft | 1 kts | 325° |
| 2026-05-07 11:39 | 40.05694 | 113.48316 | 3492 ft | 3 kts | 359° |
| 2026-05-07 11:39 | 40.05719 | 113.48332 | 3491 ft | 5 kts | 40° |
| 2026-05-07 11:39 | 40.05751 | 113.48370 | 3489 ft | 7 kts | 43° |
| 2026-05-07 11:39 | 40.05784 | 113.48409 | 3489 ft | 6 kts | 42° |
| 2026-05-07 11:40 | 40.05819 | 113.48450 | 3492 ft | 8 kts | 48° |
| 2026-05-07 11:40 | 40.05825 | 113.48523 | 3492 ft | 9 kts | 116° |
| 2026-05-07 11:40 | 40.05777 | 113.48598 | 3492 ft | 12 kts | 131° |
| 2026-05-07 11:40 | 40.05713 | 113.48691 | 3491 ft | 15 kts | 131° |
| 2026-05-07 11:41 | 40.05633 | 113.48807 | 3492 ft | 19 kts | 132° |
| 2026-05-07 11:41 | 40.05543 | 113.48940 | 3489 ft | 20 kts | 131° |
| 2026-05-07 11:41 | 40.05455 | 113.49069 | 3490 ft | 19 kts | 131° |
| 2026-05-07 11:41 | 40.05389 | 113.49165 | 3491 ft | 12 kts | 132° |
| 2026-05-07 11:42 | 40.05326 | 113.49206 | 3491 ft | 8 kts | 146° |
| 2026-05-07 11:42 | 40.05320 | 113.49249 | 3491 ft | 2 kts | 39° |
| 2026-05-07 11:42 | 40.05327 | 113.49250 | 3491 ft | 1 kts | 1° |
| 2026-05-07 11:42 | 40.05343 | 113.49232 | 3490 ft | 4 kts | 315° |
| 2026-05-07 11:43 | 40.05350 | 113.49223 | 3489 ft | 0 kts | 311° |
| 2026-05-07 11:45 | 40.05350 | 113.49222 | 3489 ft | 1 kts | 311° |
| 2026-05-07 11:45 | 40.05361 | 113.49205 | 3490 ft | 4 kts | 311° |
| 2026-05-07 11:45 | 40.05390 | 113.49164 | 3491 ft | 8 kts | 312° |
| 2026-05-07 11:45 | 40.05436 | 113.49097 | 3490 ft | 12 kts | 312° |
| 2026-05-07 11:46 | 40.05492 | 113.49013 | 3489 ft | 12 kts | 311° |
| 2026-05-07 11:46 | 40.05549 | 113.48931 | 3489 ft | 12 kts | 313° |
| 2026-05-07 11:46 | 40.05605 | 113.48850 | 3492 ft | 12 kts | 310° |
| 2026-05-07 11:46 | 40.05658 | 113.48771 | 3491 ft | 11 kts | 311° |
| 2026-05-07 11:47 | 40.05711 | 113.48695 | 3491 ft | 12 kts | 312° |
| 2026-05-07 11:47 | 40.05767 | 113.48612 | 3489 ft | 13 kts | 311° |
| 2026-05-07 11:47 | 40.05822 | 113.48530 | 3492 ft | 8 kts | 305° |
| 2026-05-07 11:47 | 40.05823 | 113.48460 | 3491 ft | 8 kts | 241° |
| 2026-05-07 11:48 | 40.05784 | 113.48409 | 3487 ft | 8 kts | 221° |
| 2026-05-07 11:48 | 40.05744 | 113.48362 | 3487 ft | 8 kts | 222° |
| 2026-05-07 11:48 | 40.05706 | 113.48318 | 3488 ft | 7 kts | 220° |
| 2026-05-07 11:48 | 40.05670 | 113.48280 | 3486 ft | 6 kts | 221° |
| 2026-05-07 11:49 | 40.05650 | 113.48257 | 3488 ft | 0 kts | 221° |
| 2026-05-07 12:09 | 40.05658 | 113.48267 | 3483 ft | 3 kts | 227° |
| 2026-05-07 12:10 | 40.05670 | 113.48288 | 3479 ft | 3 kts | 245° |
| 2026-05-07 12:10 | 40.05675 | 113.48312 | 3480 ft | 3 kts | 278° |
| 2026-05-07 12:10 | 40.05671 | 113.48329 | 3481 ft | 1 kts | 311° |
| 2026-05-07 12:10 | 40.05670 | 113.48330 | 3480 ft | 0 kts | 311° |
| 2026-05-07 12:14 | 40.05677 | 113.48321 | 3479 ft | 3 kts | 318° |
| 2026-05-07 12:15 | 40.05703 | 113.48318 | 3479 ft | 5 kts | 24° |
| 2026-05-07 12:15 | 40.05734 | 113.48351 | 3480 ft | 7 kts | 41° |
| 2026-05-07 12:15 | 40.05776 | 113.48400 | 3479 ft | 10 kts | 42° |
| 2026-05-07 12:15 | 40.05826 | 113.48466 | 3483 ft | 10 kts | 61° |
| 2026-05-07 12:16 | 40.05809 | 113.48550 | 3481 ft | 10 kts | 129° |
| 2026-05-07 12:16 | 40.05762 | 113.48620 | 3482 ft | 11 kts | 131° |
| 2026-05-07 12:16 | 40.05705 | 113.48702 | 3484 ft | 13 kts | 131° |
| 2026-05-07 12:16 | 40.05637 | 113.48802 | 3481 ft | 16 kts | 131° |
| 2026-05-07 12:17 | 40.05561 | 113.48913 | 3481 ft | 16 kts | 131° |
| 2026-05-07 12:17 | 40.05488 | 113.49021 | 3483 ft | 16 kts | 131° |
| 2026-05-07 12:17 | 40.05417 | 113.49123 | 3483 ft | 14 kts | 131° |
| 2026-05-07 12:17 | 40.05361 | 113.49187 | 3481 ft | 9 kts | 162° |
| 2026-05-07 12:18 | 40.05316 | 113.49227 | 3483 ft | 6 kts | 108° |
| 2026-05-07 12:18 | 40.05333 | 113.49246 | 3481 ft | 3 kts | 343° |
| 2026-05-07 12:18 | 40.05352 | 113.49219 | 3481 ft | 5 kts | 311° |
| 2026-05-07 12:18 | 40.05377 | 113.49182 | 3481 ft | 8 kts | 312° |
| 2026-05-07 12:19 | 40.05525 | 113.48966 | 3481 ft | 73 kts | 312° |
| 2026-05-07 12:19 | 40.06052 | 113.48192 | 3486 ft | 152 kts | 311° |
| 2026-05-07 12:19 | 40.06805 | 113.47097 | 4097 ft | 168 kts | 312° |
| 2026-05-07 12:19 | 40.07587 | 113.45984 | 5222 ft | 159 kts | 314° |
| 2026-05-07 12:20 | 40.08424 | 113.45158 | 6329 ft | 147 kts | 329° |
| 2026-05-07 12:20 | 40.09324 | 113.44413 | 6962 ft | 160 kts | 326° |
| 2026-05-07 12:20 | 40.10326 | 113.43543 | 7384 ft | 189 kts | 326° |
| 2026-05-07 12:20 | 40.11492 | 113.42516 | 7733 ft | 216 kts | 326° |
| 2026-05-07 12:21 | 40.12858 | 113.41449 | 8183 ft | 241 kts | 342° |
| 2026-05-07 12:21 | 40.14552 | 113.41402 | 9060 ft | 253 kts | 13° |
| 2026-05-07 12:21 | 40.16109 | 113.42517 | 10110 ft | 262 kts | 40° |
| 2026-05-07 12:21 | 40.17130 | 113.44504 | 11122 ft | 270 kts | 68° |
| 2026-05-07 12:22 | 40.17352 | 113.46961 | 12145 ft | 279 kts | 95° |
| 2026-05-07 12:22 | 40.16656 | 113.49364 | 13121 ft | 291 kts | 124° |
| 2026-05-07 12:22 | 40.15124 | 113.51129 | 14104 ft | 299 kts | 148° |
| 2026-05-07 12:22 | 40.13240 | 113.52360 | 14973 ft | 307 kts | 156° |
| 2026-05-07 12:23 | 40.11249 | 113.53478 | 15847 ft | 315 kts | 157° |
| 2026-05-07 12:23 | 40.09216 | 113.54620 | 16763 ft | 321 kts | 156° |
| 2026-05-07 12:23 | 40.07153 | 113.55821 | 17691 ft | 328 kts | 156° |
| 2026-05-07 12:23 | 40.05064 | 113.57078 | 18581 ft | 335 kts | 155° |
| 2026-05-07 12:24 | 40.02926 | 113.58391 | 19331 ft | 343 kts | 155° |
| 2026-05-07 12:24 | 40.00743 | 113.59749 | 20070 ft | 352 kts | 155° |
| 2026-05-07 12:24 | 39.98529 | 113.61132 | 20825 ft | 360 kts | 155° |
| 2026-05-07 12:24 | 39.96262 | 113.62549 | 21546 ft | 364 kts | 155° |
| 2026-05-07 12:25 | 39.93952 | 113.64008 | 22009 ft | 376 kts | 152° |
| 2026-05-07 12:25 | 39.91784 | 113.66045 | 22336 ft | 396 kts | 136° |
| 2026-05-07 12:25 | 39.89721 | 113.68585 | 22543 ft | 421 kts | 133° |
| 2026-05-07 12:25 | 39.87584 | 113.71351 | 22775 ft | 443 kts | 133° |
| 2026-05-07 12:26 | 39.85367 | 113.74220 | 23329 ft | 455 kts | 133° |
| 2026-05-07 12:26 | 39.83094 | 113.77119 | 23782 ft | 461 kts | 134° |
| 2026-05-07 12:26 | 39.80771 | 113.80037 | 23740 ft | 464 kts | 134° |
| 2026-05-07 12:26 | 39.78442 | 113.82926 | 23744 ft | 460 kts | 134° |
| 2026-05-07 12:27 | 39.76128 | 113.85784 | 23748 ft | 459 kts | 134° |
| 2026-05-07 12:27 | 39.73816 | 113.88640 | 23748 ft | 459 kts | 134° |
| 2026-05-07 12:27 | 39.71500 | 113.91502 | 23742 ft | 459 kts | 134° |
| 2026-05-07 12:27 | 39.69185 | 113.94360 | 23762 ft | 459 kts | 134° |
| 2026-05-07 12:28 | 39.66865 | 113.97208 | 23767 ft | 459 kts | 135° |
| 2026-05-07 12:28 | 39.64536 | 114.00052 | 23751 ft | 460 kts | 135° |
| 2026-05-07 12:28 | 39.62204 | 114.02893 | 23744 ft | 460 kts | 135° |
| 2026-05-07 12:28 | 39.59868 | 114.05738 | 23743 ft | 460 kts | 135° |
| 2026-05-07 12:29 | 39.57536 | 114.08576 | 23768 ft | 460 kts | 135° |
| 2026-05-07 12:29 | 39.55197 | 114.11422 | 23742 ft | 460 kts | 134° |
| 2026-05-07 12:29 | 39.52893 | 114.14223 | 23747 ft | 460 kts | 135° |
| 2026-05-07 12:29 | 39.50563 | 114.17056 | 23754 ft | 460 kts | 135° |
| 2026-05-07 12:30 | 39.48224 | 114.19897 | 23767 ft | 460 kts | 135° |
| 2026-05-07 12:30 | 39.45891 | 114.22728 | 23752 ft | 460 kts | 135° |
| 2026-05-07 12:30 | 39.43559 | 114.25556 | 23751 ft | 460 kts | 135° |
| 2026-05-07 12:30 | 39.41216 | 114.28392 | 23757 ft | 460 kts | 135° |
| 2026-05-07 12:31 | 39.38729 | 114.30999 | 23738 ft | 462 kts | 149° |
| 2026-05-07 12:31 | 39.35798 | 114.32633 | 23752 ft | 459 kts | 168° |
| 2026-05-07 12:31 | 39.33713 | 114.33028 | 23754 ft | 458 kts | 184° |
| 2026-05-07 12:31 | 39.30607 | 114.32418 | 23759 ft | 447 kts | 207° |
| 2026-05-07 12:32 | 39.27981 | 114.30503 | 23764 ft | 424 kts | 230° |
| 2026-05-07 12:32 | 39.26210 | 114.27660 | 23755 ft | 394 kts | 253° |
| 2026-05-07 12:32 | 39.25328 | 114.23340 | 23763 ft | 369 kts | 270° |
| 2026-05-07 12:32 | 39.24996 | 114.21126 | 23737 ft | 377 kts | 265° |
| 2026-05-07 12:33 | 39.22909 | 114.14766 | 23749 ft | 404 kts | 242° |
| 2026-05-07 12:33 | 39.20778 | 114.12266 | 23742 ft | 431 kts | 219° |
| 2026-05-07 12:33 | 39.17931 | 114.10816 | 23775 ft | 448 kts | 201° |
| 2026-05-07 12:34 | 39.14867 | 114.09970 | 23749 ft | 452 kts | 197° |
| 2026-05-07 12:34 | 39.11817 | 114.09238 | 23745 ft | 450 kts | 197° |
| 2026-05-07 12:34 | 39.08749 | 114.08439 | 23743 ft | 449 kts | 199° |
| 2026-05-07 12:34 | 39.05709 | 114.07539 | 23751 ft | 447 kts | 200° |
| 2026-05-07 12:35 | 39.02702 | 114.06556 | 23745 ft | 445 kts | 202° |
| 2026-05-07 12:35 | 38.99712 | 114.05519 | 23751 ft | 445 kts | 202° |
| 2026-05-07 12:35 | 38.96735 | 114.04458 | 23749 ft | 444 kts | 203° |
| 2026-05-07 12:35 | 38.93760 | 114.03389 | 23748 ft | 443 kts | 203° |
| 2026-05-07 12:36 | 38.90790 | 114.02323 | 23739 ft | 443 kts | 203° |
| 2026-05-07 12:36 | 38.87818 | 114.01261 | 23744 ft | 443 kts | 203° |
| 2026-05-07 12:36 | 38.84837 | 114.00201 | 23754 ft | 444 kts | 203° |
| 2026-05-07 12:36 | 38.81864 | 113.99146 | 23747 ft | 444 kts | 203° |
| 2026-05-07 12:37 | 38.78892 | 113.98094 | 23739 ft | 442 kts | 203° |
| 2026-05-07 12:37 | 38.75922 | 113.97045 | 23745 ft | 443 kts | 203° |
| 2026-05-07 12:37 | 38.72955 | 113.95996 | 23739 ft | 442 kts | 203° |
| 2026-05-07 12:37 | 38.69993 | 113.94950 | 23756 ft | 442 kts | 203° |
| 2026-05-07 12:38 | 38.67063 | 113.93917 | 23754 ft | 441 kts | 203° |
| 2026-05-07 12:38 | 38.64109 | 113.92878 | 23737 ft | 440 kts | 203° |
| 2026-05-07 12:38 | 38.61154 | 113.91841 | 23735 ft | 439 kts | 203° |
| 2026-05-07 12:38 | 38.58206 | 113.90810 | 23748 ft | 438 kts | 203° |
| 2026-05-07 12:39 | 38.55272 | 113.89785 | 23749 ft | 437 kts | 203° |
| 2026-05-07 12:39 | 38.52345 | 113.88762 | 23753 ft | 437 kts | 203° |
| 2026-05-07 12:39 | 38.49408 | 113.87736 | 23742 ft | 438 kts | 203° |
| 2026-05-07 12:39 | 38.46471 | 113.86710 | 23748 ft | 438 kts | 203° |
| 2026-05-07 12:40 | 38.43538 | 113.85685 | 23771 ft | 437 kts | 202° |
| 2026-05-07 12:40 | 38.40602 | 113.84662 | 23765 ft | 438 kts | 202° |
| 2026-05-07 12:40 | 38.37666 | 113.83641 | 23749 ft | 438 kts | 202° |
| 2026-05-07 12:40 | 38.34735 | 113.82622 | 23741 ft | 437 kts | 202° |
| 2026-05-07 12:41 | 38.31799 | 113.81603 | 23737 ft | 437 kts | 202° |
| 2026-05-07 12:41 | 38.28871 | 113.80590 | 23743 ft | 436 kts | 202° |
| 2026-05-07 12:41 | 38.25947 | 113.79581 | 23754 ft | 434 kts | 202° |
| 2026-05-07 12:41 | 38.23034 | 113.78576 | 23762 ft | 434 kts | 202° |
| 2026-05-07 12:42 | 38.20117 | 113.77570 | 23756 ft | 435 kts | 202° |
| 2026-05-07 12:42 | 38.17198 | 113.76563 | 23757 ft | 434 kts | 202° |
| 2026-05-07 12:42 | 38.14338 | 113.75583 | 23745 ft | 433 kts | 203° |
| 2026-05-07 12:42 | 38.11660 | 113.74068 | 23771 ft | 418 kts | 213° |
| 2026-05-07 12:43 | 38.08873 | 113.72843 | 23738 ft | 429 kts | 202° |
| 2026-05-07 12:43 | 38.05955 | 113.71979 | 23760 ft | 432 kts | 199° |
| 2026-05-07 12:43 | 38.03010 | 113.71194 | 23757 ft | 433 kts | 199° |
| 2026-05-07 12:43 | 38.00057 | 113.70385 | 23767 ft | 434 kts | 200° |
| 2026-05-07 12:44 | 37.97116 | 113.69521 | 23764 ft | 434 kts | 201° |
| 2026-05-07 12:44 | 37.94178 | 113.68601 | 23769 ft | 434 kts | 202° |
| 2026-05-07 12:44 | 37.91294 | 113.67657 | 23766 ft | 434 kts | 202° |
| 2026-05-07 12:44 | 37.88380 | 113.66677 | 23770 ft | 434 kts | 202° |
| 2026-05-07 12:45 | 37.85465 | 113.65684 | 23776 ft | 434 kts | 202° |
| 2026-05-07 12:45 | 37.82555 | 113.64687 | 23776 ft | 434 kts | 202° |
| 2026-05-07 12:45 | 37.79631 | 113.63685 | 23771 ft | 434 kts | 202° |
| 2026-05-07 12:45 | 37.76717 | 113.62688 | 23779 ft | 433 kts | 202° |
| 2026-05-07 12:46 | 37.73811 | 113.61695 | 23778 ft | 433 kts | 202° |
| 2026-05-07 12:46 | 37.70902 | 113.60703 | 23774 ft | 433 kts | 202° |
| 2026-05-07 12:46 | 37.67998 | 113.59715 | 23784 ft | 433 kts | 202° |
| 2026-05-07 12:46 | 37.65086 | 113.58725 | 23780 ft | 432 kts | 202° |
| 2026-05-07 12:47 | 37.62183 | 113.57739 | 23789 ft | 432 kts | 202° |
| 2026-05-07 12:47 | 37.59284 | 113.56756 | 23790 ft | 431 kts | 202° |
| 2026-05-07 12:47 | 37.56392 | 113.55776 | 23794 ft | 430 kts | 202° |
| 2026-05-07 12:47 | 37.53500 | 113.54797 | 23795 ft | 430 kts | 202° |
| 2026-05-07 12:48 | 37.50610 | 113.53819 | 23790 ft | 429 kts | 202° |
| 2026-05-07 12:48 | 37.47726 | 113.52843 | 23797 ft | 428 kts | 202° |
| 2026-05-07 12:48 | 37.44850 | 113.51871 | 23795 ft | 428 kts | 202° |
| 2026-05-07 12:48 | 37.41979 | 113.50901 | 23792 ft | 427 kts | 202° |
| 2026-05-07 12:49 | 37.39105 | 113.49931 | 23798 ft | 427 kts | 202° |
| 2026-05-07 12:49 | 37.36269 | 113.48974 | 23811 ft | 427 kts | 202° |
| 2026-05-07 12:49 | 37.33397 | 113.48005 | 23803 ft | 427 kts | 202° |
| 2026-05-07 12:49 | 37.30528 | 113.47038 | 23807 ft | 427 kts | 202° |
| 2026-05-07 12:50 | 37.27653 | 113.46071 | 23812 ft | 427 kts | 202° |
| 2026-05-07 12:50 | 37.24782 | 113.45106 | 23814 ft | 427 kts | 202° |
| 2026-05-07 12:50 | 37.21915 | 113.44145 | 23801 ft | 426 kts | 202° |
| 2026-05-07 12:50 | 37.19069 | 113.43143 | 23825 ft | 425 kts | 204° |
| 2026-05-07 12:51 | 37.16208 | 113.42145 | 23815 ft | 428 kts | 202° |
| 2026-05-07 12:51 | 37.13324 | 113.41187 | 23821 ft | 429 kts | 202° |
| 2026-05-07 12:51 | 37.10434 | 113.40242 | 23813 ft | 429 kts | 201° |
| 2026-05-07 12:51 | 37.07542 | 113.39296 | 23813 ft | 429 kts | 202° |
| 2026-05-07 12:52 | 37.04654 | 113.38347 | 23823 ft | 428 kts | 202° |
| 2026-05-07 12:52 | 37.01773 | 113.37395 | 23812 ft | 428 kts | 202° |
| 2026-05-07 12:52 | 36.98894 | 113.36439 | 23802 ft | 427 kts | 202° |
| 2026-05-07 12:52 | 36.96069 | 113.35500 | 23819 ft | 426 kts | 202° |
| 2026-05-07 12:53 | 36.93210 | 113.34547 | 23806 ft | 425 kts | 202° |
| 2026-05-07 12:53 | 36.90359 | 113.33598 | 23819 ft | 424 kts | 202° |
| 2026-05-07 12:53 | 36.87509 | 113.32649 | 23804 ft | 423 kts | 202° |
| 2026-05-07 12:53 | 36.84663 | 113.31702 | 23813 ft | 423 kts | 202° |
| 2026-05-07 12:54 | 36.81817 | 113.30756 | 23801 ft | 423 kts | 202° |
| 2026-05-07 12:54 | 36.78975 | 113.29812 | 23805 ft | 423 kts | 202° |
| 2026-05-07 12:54 | 36.76138 | 113.28870 | 23806 ft | 423 kts | 202° |
| 2026-05-07 12:54 | 36.73291 | 113.27926 | 23803 ft | 423 kts | 202° |
| 2026-05-07 12:55 | 36.70444 | 113.26983 | 23809 ft | 423 kts | 202° |
| 2026-05-07 12:55 | 36.67599 | 113.26041 | 23801 ft | 423 kts | 202° |
| 2026-05-07 12:55 | 36.64754 | 113.25101 | 23804 ft | 423 kts | 202° |
| 2026-05-07 12:55 | 36.61908 | 113.24161 | 23806 ft | 423 kts | 202° |
| 2026-05-07 12:56 | 36.59065 | 113.23222 | 23808 ft | 422 kts | 202° |
| 2026-05-07 12:56 | 36.56227 | 113.22286 | 23796 ft | 422 kts | 202° |
| 2026-05-07 12:56 | 36.53383 | 113.21348 | 23815 ft | 422 kts | 202° |
| 2026-05-07 12:56 | 36.50547 | 113.20414 | 23794 ft | 422 kts | 202° |
| 2026-05-07 12:57 | 36.47704 | 113.19478 | 23790 ft | 422 kts | 202° |
| 2026-05-07 12:57 | 36.44872 | 113.18547 | 23799 ft | 421 kts | 202° |
| 2026-05-07 12:57 | 36.42041 | 113.17616 | 23798 ft | 421 kts | 202° |
| 2026-05-07 12:57 | 36.39204 | 113.16684 | 23795 ft | 421 kts | 202° |
| 2026-05-07 12:58 | 36.36367 | 113.15752 | 23798 ft | 420 kts | 202° |
| 2026-05-07 12:58 | 36.33537 | 113.14824 | 23792 ft | 420 kts | 202° |
| 2026-05-07 12:58 | 36.30741 | 113.13907 | 23794 ft | 420 kts | 202° |
| 2026-05-07 12:58 | 36.27908 | 113.12986 | 23795 ft | 421 kts | 200° |
| 2026-05-07 12:59 | 36.24975 | 113.12493 | 23786 ft | 432 kts | 188° |
| 2026-05-07 12:59 | 36.21952 | 113.12743 | 23795 ft | 441 kts | 175° |
| 2026-05-07 12:59 | 36.18974 | 113.13740 | 23799 ft | 447 kts | 165° |
| 2026-05-07 12:59 | 36.16046 | 113.15058 | 23797 ft | 448 kts | 164° |
| 2026-05-07 13:00 | 36.13132 | 113.16431 | 23795 ft | 448 kts | 163° |
| 2026-05-07 13:00 | 36.10220 | 113.17804 | 23785 ft | 448 kts | 164° |
| 2026-05-07 13:00 | 36.07304 | 113.19155 | 23793 ft | 447 kts | 164° |
| 2026-05-07 13:00 | 36.04387 | 113.20481 | 23800 ft | 447 kts | 165° |
| 2026-05-07 13:01 | 36.01467 | 113.21793 | 23799 ft | 447 kts | 165° |
| 2026-05-07 13:01 | 35.98547 | 113.23094 | 23805 ft | 446 kts | 165° |
| 2026-05-07 13:01 | 35.95623 | 113.24395 | 23798 ft | 446 kts | 165° |
| 2026-05-07 13:01 | 35.92697 | 113.25696 | 23797 ft | 446 kts | 165° |
| 2026-05-07 13:02 | 35.89777 | 113.26996 | 23808 ft | 446 kts | 165° |
| 2026-05-07 13:02 | 35.86853 | 113.28297 | 23814 ft | 446 kts | 165° |
| 2026-05-07 13:02 | 35.83925 | 113.29599 | 23807 ft | 447 kts | 165° |
| 2026-05-07 13:02 | 35.81045 | 113.30888 | 23809 ft | 447 kts | 165° |
| 2026-05-07 13:03 | 35.78123 | 113.32203 | 23805 ft | 447 kts | 165° |
| 2026-05-07 13:03 | 35.75195 | 113.33521 | 23813 ft | 447 kts | 165° |
| 2026-05-07 13:03 | 35.72286 | 113.34829 | 23807 ft | 446 kts | 165° |
| 2026-05-07 13:03 | 35.69367 | 113.36140 | 23797 ft | 446 kts | 165° |
| 2026-05-07 13:04 | 35.66455 | 113.37447 | 23814 ft | 445 kts | 165° |
| 2026-05-07 13:04 | 35.63542 | 113.38751 | 23795 ft | 444 kts | 165° |
| 2026-05-07 13:04 | 35.60644 | 113.40047 | 23800 ft | 443 kts | 165° |
| 2026-05-07 13:04 | 35.57739 | 113.41332 | 23800 ft | 442 kts | 166° |
| 2026-05-07 13:05 | 35.54843 | 113.42604 | 23796 ft | 441 kts | 166° |
| 2026-05-07 13:05 | 35.51954 | 113.43871 | 23802 ft | 440 kts | 165° |
| 2026-05-07 13:05 | 35.49071 | 113.45136 | 23805 ft | 440 kts | 166° |
| 2026-05-07 13:05 | 35.46186 | 113.46403 | 23794 ft | 439 kts | 165° |
| 2026-05-07 13:06 | 35.43309 | 113.47669 | 23783 ft | 439 kts | 165° |
| 2026-05-07 13:06 | 35.40476 | 113.48937 | 23791 ft | 438 kts | 165° |
| 2026-05-07 13:06 | 35.37618 | 113.50226 | 23792 ft | 437 kts | 165° |
| 2026-05-07 13:06 | 35.34770 | 113.51513 | 23786 ft | 437 kts | 165° |
| 2026-05-07 13:07 | 35.31904 | 113.52805 | 23786 ft | 437 kts | 165° |
| 2026-05-07 13:07 | 35.29058 | 113.54086 | 23784 ft | 436 kts | 165° |
| 2026-05-07 13:07 | 35.26212 | 113.55365 | 23786 ft | 435 kts | 165° |
| 2026-05-07 13:07 | 35.23369 | 113.56641 | 23778 ft | 434 kts | 165° |
| 2026-05-07 13:08 | 35.20542 | 113.57908 | 23779 ft | 433 kts | 165° |
| 2026-05-07 13:08 | 35.17717 | 113.59172 | 23693 ft | 432 kts | 165° |
| 2026-05-07 13:08 | 35.14882 | 113.60440 | 23095 ft | 433 kts | 164° |
| 2026-05-07 13:08 | 35.12065 | 113.61701 | 22480 ft | 428 kts | 164° |
| 2026-05-07 13:09 | 35.09320 | 113.62928 | 21847 ft | 423 kts | 163° |
| 2026-05-07 13:09 | 35.06569 | 113.64143 | 21197 ft | 419 kts | 163° |
| 2026-05-07 13:09 | 35.03836 | 113.65331 | 20557 ft | 416 kts | 163° |
| 2026-05-07 13:09 | 35.01120 | 113.66507 | 19926 ft | 412 kts | 163° |
| 2026-05-07 13:10 | 34.98419 | 113.67676 | 19279 ft | 410 kts | 162° |
| 2026-05-07 13:10 | 34.95739 | 113.68838 | 18644 ft | 408 kts | 162° |
| 2026-05-07 13:10 | 34.93070 | 113.69996 | 17943 ft | 406 kts | 161° |
| 2026-05-07 13:10 | 34.90416 | 113.71149 | 17295 ft | 402 kts | 161° |
| 2026-05-07 13:11 | 34.87802 | 113.72282 | 16664 ft | 398 kts | 161° |
| 2026-05-07 13:11 | 34.85187 | 113.73373 | 16042 ft | 394 kts | 164° |
| 2026-05-07 13:11 | 34.82564 | 113.74256 | 15414 ft | 390 kts | 166° |
| 2026-05-07 13:11 | 34.79937 | 113.75078 | 14783 ft | 387 kts | 166° |
| 2026-05-07 13:12 | 34.77344 | 113.75903 | 14148 ft | 385 kts | 165° |
| 2026-05-07 13:12 | 34.74789 | 113.76726 | 13477 ft | 382 kts | 165° |
| 2026-05-07 13:12 | 34.72236 | 113.77550 | 12832 ft | 378 kts | 165° |
| 2026-05-07 13:12 | 34.69679 | 113.78376 | 12334 ft | 370 kts | 165° |
| 2026-05-07 13:13 | 34.67285 | 113.79149 | 12190 ft | 353 kts | 165° |
| 2026-05-07 13:13 | 34.64954 | 113.79902 | 12027 ft | 339 kts | 165° |
| 2026-05-07 13:13 | 34.62733 | 113.80632 | 11979 ft | 323 kts | 165° |
| 2026-05-07 13:13 | 34.60578 | 113.81364 | 11358 ft | 327 kts | 165° |
| 2026-05-07 13:14 | 34.58361 | 113.82120 | 10784 ft | 331 kts | 164° |
| 2026-05-07 13:14 | 34.56143 | 113.82873 | 10296 ft | 331 kts | 164° |
| 2026-05-07 13:14 | 34.53927 | 113.83624 | 9802 ft | 329 kts | 164° |
| 2026-05-07 13:14 | 34.51695 | 113.84118 | 9338 ft | 325 kts | 181° |
| 2026-05-07 13:15 | 34.49499 | 113.83707 | 8936 ft | 316 kts | 197° |
| 2026-05-07 13:15 | 34.47387 | 113.83032 | 8525 ft | 312 kts | 198° |
| 2026-05-07 13:15 | 34.45324 | 113.82369 | 8144 ft | 308 kts | 197° |
| 2026-05-07 13:15 | 34.43295 | 113.81735 | 8020 ft | 294 kts | 197° |
| 2026-05-07 13:16 | 34.41369 | 113.81087 | 7919 ft | 279 kts | 207° |
| 2026-05-07 13:16 | 34.39964 | 113.79678 | 7914 ft | 254 kts | 244° |
| 2026-05-07 13:16 | 34.39527 | 113.77699 | 7718 ft | 242 kts | 281° |
| 2026-05-07 13:16 | 34.40172 | 113.75930 | 7598 ft | 228 kts | 317° |
| 2026-05-07 13:17 | 34.41553 | 113.75140 | 7519 ft | 223 kts | 356° |
| 2026-05-07 13:17 | 34.43088 | 113.75071 | 7433 ft | 223 kts | 342° |
| 2026-05-07 13:17 | 34.44296 | 113.73952 | 7379 ft | 227 kts | 303° |
| 2026-05-07 13:17 | 34.44879 | 113.72152 | 7277 ft | 232 kts | 291° |
| 2026-05-07 13:18 | 34.45390 | 113.70276 | 7130 ft | 237 kts | 292° |
| 2026-05-07 13:18 | 34.45931 | 113.68392 | 6980 ft | 235 kts | 293° |
| 2026-05-07 13:18 | 34.46298 | 113.67167 | 6872 ft | 232 kts | 293° |
| 2026-05-07 13:18 | 34.46863 | 113.65351 | 6719 ft | 229 kts | 294° |
| 2026-05-07 13:19 | 34.47634 | 113.62954 | 6505 ft | 229 kts | 294° |
| 2026-05-07 13:19 | 34.48224 | 113.61161 | 6359 ft | 229 kts | 294° |
| 2026-05-07 13:19 | 34.48618 | 113.59975 | 6258 ft | 229 kts | 294° |
| 2026-05-07 13:19 | 34.49420 | 113.57576 | 6059 ft | 230 kts | 294° |
| 2026-05-07 13:20 | 34.49820 | 113.56390 | 5959 ft | 230 kts | 294° |
| 2026-05-07 13:20 | 34.50428 | 113.54591 | 5821 ft | 231 kts | 294° |
| 2026-05-07 13:20 | 34.51037 | 113.52790 | 5679 ft | 231 kts | 294° |
| 2026-05-07 13:20 | 34.51649 | 113.50982 | 5533 ft | 232 kts | 294° |
| 2026-05-07 13:21 | 34.52261 | 113.49174 | 5387 ft | 230 kts | 294° |
| 2026-05-07 13:21 | 34.53111 | 113.47602 | 5216 ft | 221 kts | 321° |
| 2026-05-07 13:21 | 34.54452 | 113.46827 | 5101 ft | 212 kts | 348° |
| 2026-05-07 13:21 | 34.55906 | 113.46831 | 4972 ft | 211 kts | 12° |
| 2026-05-07 13:22 | 34.57301 | 113.47404 | 4846 ft | 213 kts | 21° |
| 2026-05-07 13:22 | 34.58686 | 113.48095 | 4627 ft | 217 kts | 22° |
| 2026-05-07 13:22 | 34.60087 | 113.48801 | 4430 ft | 217 kts | 22° |
| 2026-05-07 13:22 | 34.61432 | 113.49612 | 4212 ft | 216 kts | 41° |
| 2026-05-07 13:23 | 34.62145 | 113.51146 | 3983 ft | 212 kts | 83° |
| 2026-05-07 13:23 | 34.61973 | 113.52866 | 3832 ft | 205 kts | 101° |
| 2026-05-07 13:23 | 34.61645 | 113.54538 | 3624 ft | 202 kts | 102° |
| 2026-05-07 13:23 | 34.61290 | 113.56178 | 3433 ft | 200 kts | 105° |
| 2026-05-07 13:24 | 34.60849 | 113.57769 | 3227 ft | 198 kts | 109° |
| 2026-05-07 13:24 | 34.60354 | 113.59314 | 3056 ft | 194 kts | 111° |
| 2026-05-07 13:24 | 34.59861 | 113.60780 | 3015 ft | 183 kts | 111° |
| 2026-05-07 13:24 | 34.59383 | 113.62188 | 2987 ft | 177 kts | 111° |
| 2026-05-07 13:25 | 34.58915 | 113.63562 | 3004 ft | 178 kts | 111° |
| 2026-05-07 13:25 | 34.58438 | 113.64965 | 2983 ft | 181 kts | 110° |
| 2026-05-07 13:25 | 34.57956 | 113.66382 | 2986 ft | 182 kts | 111° |
| 2026-05-07 13:25 | 34.57481 | 113.67779 | 2979 ft | 176 kts | 110° |
| 2026-05-07 13:26 | 34.57020 | 113.69132 | 2816 ft | 169 kts | 110° |
| 2026-05-07 13:26 | 34.56586 | 113.70410 | 2615 ft | 160 kts | 110° |
| 2026-05-07 13:26 | 34.56171 | 113.71630 | 2406 ft | 151 kts | 109° |
| 2026-05-07 13:26 | 34.55787 | 113.72760 | 2242 ft | 136 kts | 109° |
| 2026-05-07 13:27 | 34.55445 | 113.73769 | 2043 ft | 124 kts | 109° |
| 2026-05-07 13:27 | 34.55123 | 113.74719 | 1880 ft | 120 kts | 109° |
| 2026-05-07 13:27 | 34.54806 | 113.75655 | 1739 ft | 123 kts | 108° |
| 2026-05-07 13:27 | 34.54481 | 113.76613 | 1575 ft | 122 kts | 109° |
| 2026-05-07 13:28 | 34.54153 | 113.77581 | 1400 ft | 124 kts | 109° |
| 2026-05-07 13:28 | 34.53824 | 113.78552 | 1219 ft | 125 kts | 110° |
| 2026-05-07 13:28 | 34.53492 | 113.79533 | 1056 ft | 127 kts | 110° |
| 2026-05-07 13:28 | 34.53155 | 113.80529 | 838 ft | 129 kts | 110° |
| 2026-05-07 13:29 | 34.52823 | 113.81513 | 674 ft | 124 kts | 111° |
| 2026-05-07 13:29 | 34.52491 | 113.82487 | 528 ft | 127 kts | 110° |
| 2026-05-07 13:29 | 34.52185 | 113.83391 | 502 ft | 97 kts | 112° |
| 2026-05-07 13:29 | 34.51987 | 113.83976 | 495 ft | 57 kts | 113° |
| 2026-05-07 13:30 | 34.51912 | 113.84275 | 499 ft | 28 kts | 94° |
| 2026-05-07 13:30 | 34.51917 | 113.84426 | 501 ft | 13 kts | 85° |
| 2026-05-07 13:30 | 34.51938 | 113.84513 | 503 ft | 9 kts | 36° |
| 2026-05-07 13:30 | 34.51989 | 113.84493 | 503 ft | 9 kts | 302° |
| 2026-05-07 13:31 | 34.52013 | 113.84428 | 503 ft | 8 kts | 292° |
| 2026-05-07 13:31 | 34.52039 | 113.84352 | 503 ft | 11 kts | 292° |
| 2026-05-07 13:31 | 34.52073 | 113.84251 | 503 ft | 14 kts | 292° |
| 2026-05-07 13:31 | 34.52110 | 113.84144 | 503 ft | 13 kts | 292° |
| 2026-05-07 13:32 | 34.52146 | 113.84037 | 503 ft | 15 kts | 292° |
| 2026-05-07 13:32 | 34.52189 | 113.83910 | 503 ft | 17 kts | 292° |
| 2026-05-07 13:32 | 34.52234 | 113.83777 | 503 ft | 17 kts | 292° |
| 2026-05-07 13:32 | 34.52278 | 113.83649 | 503 ft | 16 kts | 292° |
| 2026-05-07 13:33 | 34.52319 | 113.83528 | 504 ft | 14 kts | 292° |
| 2026-05-07 13:33 | 34.52350 | 113.83438 | 504 ft | 10 kts | 296° |
| 2026-05-07 13:33 | 34.52409 | 113.83425 | 504 ft | 10 kts | 21° |
| 2026-05-07 13:33 | 34.52470 | 113.83455 | 504 ft | 9 kts | 22° |
| 2026-05-07 13:34 | 34.52529 | 113.83484 | 504 ft | 8 kts | 22° |
| 2026-05-07 13:34 | 34.52564 | 113.83450 | 504 ft | 5 kts | 209° |
| 2026-05-07 13:34 | 34.52540 | 113.83437 | 504 ft | 0 kts | 202° |